Time;durP1;ratioP1;P1;durP2;ratioP2;P2;SDS_P1;SDS_P2;PMS_P1;PMS_P2;Temp;Humidity;BMP_temperature;BMP_pressure;BME280_temperature;BME280_humidity;BME280_pressure;Samples;Min_cycle;Max_cycle;Signal;HPM_P1;HPM_P2
2023/06/19 00:02:14;;;;;;;9.00;7.25;;;14.80;99.90;;;;;;5109573;28;20531;-51
2023/06/19 00:04:39;;;;;;;9.27;7.30;;;14.80;99.90;;;;;;5072172;28;20112;-48
2023/06/19 00:07:05;;;;;;;9.20;7.03;;;14.80;99.90;;;;;;5110834;28;20038;-51
2023/06/19 00:09:31;;;;;;;8.05;7.25;;;14.70;99.90;;;;;;5071433;28;20046;-51
2023/06/19 00:11:58;;;;;;;9.35;7.70;;;14.70;99.90;;;;;;5109370;28;20115;-51
2023/06/19 00:14:24;;;;;;;7.88;7.07;;;14.70;99.90;;;;;;5071963;28;20047;-49
2023/06/19 00:16:50;;;;;;;8.15;7.30;;;14.70;99.90;;;;;;5108999;28;20059;-52
2023/06/19 00:19:17;;;;;;;9.88;8.13;;;14.60;99.90;;;;;;5073106;28;20020;-55
2023/06/19 00:21:42;;;;;;;8.32;7.35;;;14.60;99.90;;;;;;5109258;28;20527;-52
2023/06/19 00:24:08;;;;;;;9.52;8.27;;;14.60;99.90;;;;;;5073352;28;20028;-51
2023/06/19 00:26:34;;;;;;;9.63;7.65;;;14.50;99.90;;;;;;5109139;28;20249;-49
2023/06/19 00:28:59;;;;;;;8.45;7.57;;;14.50;99.90;;;;;;5075275;28;20883;-48
2023/06/19 00:31:27;;;;;;;9.75;8.68;;;14.50;99.90;;;;;;5108822;28;20016;-47
2023/06/19 00:33:52;;;;;;;9.25;8.35;;;14.50;99.90;;;;;;5076090;28;20024;-51
2023/06/19 00:36:20;;;;;;;8.70;7.82;;;14.40;99.90;;;;;;5108917;28;20080;-50
2023/06/19 00:38:46;;;;;;;11.52;8.50;;;14.40;99.90;;;;;;5076774;28;20024;-50
2023/06/19 00:41:11;;;;;;;9.82;8.15;;;14.40;99.90;;;;;;5108733;28;20394;-51
2023/06/19 00:43:37;;;;;;;9.15;7.47;;;14.30;99.90;;;;;;5075082;28;20036;-50
2023/06/19 00:46:03;;;;;;;9.30;6.82;;;14.40;99.90;;;;;;5108626;28;20448;-49
2023/06/19 00:48:31;;;;;;;9.10;7.68;;;14.30;99.90;;;;;;5076167;28;20067;-53
2023/06/19 00:50:57;;;;;;;9.18;8.00;;;14.30;99.90;;;;;;5109053;28;20031;-49
2023/06/19 00:53:23;;;;;;;8.65;7.70;;;14.30;99.90;;;;;;5098762;28;20023;-50
2023/06/19 00:55:51;;;;;;;8.80;7.40;;;14.20;99.90;;;;;;5089740;27;20038;-49
2023/06/19 00:58:18;;;;;;;7.88;7.07;;;14.20;99.90;;;;;;5107261;28;20081;-48
2023/06/19 01:00:44;;;;;;;8.63;7.72;;;14.20;99.90;;;;;;5089234;28;20036;-50
2023/06/19 01:03:09;;;;;;;9.20;8.18;;;14.20;99.90;;;;;;5106865;28;20039;-49
2023/06/19 01:05:35;;;;;;;9.48;7.85;;;14.20;99.90;;;;;;5096693;28;20542;-49
2023/06/19 01:08:42;;;;;;;9.15;8.05;;;14.20;99.90;;;;;;5095535;27;20040;-52
2023/06/19 01:11:10;;;;;;;8.95;7.80;;;14.20;99.90;;;;;;5068919;28;20029;-53
2023/06/19 01:14:09;;;;;;;8.73;7.82;;;14.20;99.90;;;;;;5081114;28;20052;-49
2023/06/19 01:16:35;;;;;;;10.98;8.65;;;14.20;99.90;;;;;;5084151;28;20021;-51
2023/06/19 01:19:01;;;;;;;8.80;7.93;;;14.30;99.90;;;;;;5074129;28;20274;-47
2023/06/19 01:21:26;;;;;;;8.05;7.25;;;14.20;99.90;;;;;;5107883;28;20114;-52
2023/06/19 01:23:52;;;;;;;9.38;8.30;;;14.30;99.90;;;;;;5072592;28;20024;-50
2023/06/19 01:26:20;;;;;;;12.80;9.10;;;14.30;99.90;;;;;;5107721;28;20028;-49
2023/06/19 01:28:46;;;;;;;9.85;8.82;;;14.30;99.90;;;;;;5086154;28;20039;-50
2023/06/19 01:31:20;;;;;;;10.57;8.57;;;14.40;99.90;;;;;;5109115;28;20039;-49
2023/06/19 01:33:47;;;;;;;11.48;9.02;;;14.50;99.90;;;;;;5066824;28;20086;-49
2023/06/19 01:36:14;;;;;;;8.60;7.70;;;14.40;99.90;;;;;;5108053;28;20032;-48
2023/06/19 01:38:40;;;;;;;11.18;9.52;;;14.50;99.90;;;;;;5074084;28;20032;-46
2023/06/19 01:41:08;;;;;;;9.93;8.25;;;14.60;99.90;;;;;;5108040;28;20085;-48
2023/06/19 01:43:33;;;;;;;8.38;7.57;;;14.60;99.90;;;;;;5074855;28;20588;-52
2023/06/19 01:46:00;;;;;;;8.63;7.28;;;14.60;99.90;;;;;;5107608;28;20118;-52
2023/06/19 01:48:26;;;;;;;8.82;7.90;;;14.70;99.90;;;;;;5075817;28;20024;-51
2023/06/19 01:50:52;;;;;;;9.65;7.85;;;14.70;99.90;;;;;;5107666;28;20035;-48
2023/06/19 01:53:17;;;;;;;11.23;9.07;;;14.80;99.90;;;;;;5097371;28;20027;-49
2023/06/19 01:55:43;;;;;;;8.75;7.85;;;14.80;99.90;;;;;;5089291;28;20057;-47
2023/06/19 01:58:09;;;;;;;9.32;8.43;;;14.80;99.90;;;;;;5106047;28;20055;-49
2023/06/19 02:00:35;;;;;;;9.85;8.88;;;14.80;99.90;;;;;;5087442;28;20028;-52
2023/06/19 02:03:01;;;;;;;9.48;7.95;;;14.80;99.90;;;;;;5106135;28;20020;-48
2023/06/19 02:05:26;;;;;;;11.52;7.72;;;14.80;99.90;;;;;;5095190;28;20043;-52
2023/06/19 02:07:52;;;;;;;11.07;8.50;;;14.80;99.90;;;;;;5093695;28;20540;-53
2023/06/19 02:10:17;;;;;;;10.35;9.23;;;14.80;99.90;;;;;;5108796;28;20032;-54
2023/06/19 02:12:43;;;;;;;9.65;8.65;;;14.80;99.90;;;;;;5092508;28;20510;-46
2023/06/19 02:15:09;;;;;;;10.57;9.40;;;14.80;99.90;;;;;;5108637;28;20018;-55
2023/06/19 02:17:34;;;;;;;9.77;8.88;;;14.70;99.90;;;;;;5091018;28;20027;-53
2023/06/19 02:20:00;;;;;;;10.75;9.52;;;14.70;99.90;;;;;;5108721;28;20107;-52
2023/06/19 02:22:26;;;;;;;10.32;9.23;;;14.70;99.90;;;;;;5089753;28;20049;-53
2023/06/19 02:24:51;;;;;;;9.98;8.85;;;14.70;99.90;;;;;;5108619;28;20043;-50
2023/06/19 02:27:16;;;;;;;11.13;8.95;;;14.60;99.90;;;;;;5088729;28;20431;-52
2023/06/19 02:29:42;;;;;;;12.18;9.55;;;14.70;99.90;;;;;;5108413;28;20100;-52
2023/06/19 02:32:08;;;;;;;9.70;8.70;;;14.70;99.90;;;;;;5087039;28;20028;-54
2023/06/19 02:34:33;;;;;;;9.93;8.90;;;14.70;99.90;;;;;;5108512;28;20129;-52
2023/06/19 02:36:59;;;;;;;9.90;8.40;;;14.70;99.90;;;;;;5087342;28;20476;-51
2023/06/19 02:39:24;;;;;;;9.88;8.05;;;14.80;99.90;;;;;;5066916;28;20078;-55
2023/06/19 02:41:50;;;;;;;9.35;8.45;;;14.80;99.90;;;;;;5107095;28;20077;-54
2023/06/19 02:44:16;;;;;;;10.27;9.20;;;14.80;99.90;;;;;;5068478;28;20040;-52
2023/06/19 02:46:41;;;;;;;12.88;8.75;;;14.80;99.90;;;;;;5107806;28;20028;-55
2023/06/19 02:49:07;;;;;;;9.77;8.77;;;14.80;99.90;;;;;;5073281;28;20033;-56
2023/06/19 02:51:32;;;;;;;9.85;8.85;;;14.90;99.90;;;;;;5110645;28;20526;-55
2023/06/19 02:53:57;;;;;;;12.48;8.93;;;14.90;99.90;;;;;;5074496;28;20036;-50
2023/06/19 02:56:25;;;;;;;10.18;9.07;;;14.90;99.90;;;;;;5110603;28;20043;-52
2023/06/19 02:58:50;;;;;;;10.05;9.02;;;15.00;99.90;;;;;;5075096;28;20037;-52
2023/06/19 03:01:16;;;;;;;11.05;9.90;;;15.00;99.90;;;;;;5110799;28;20437;-53
2023/06/19 03:03:41;;;;;;;10.02;8.93;;;14.90;99.90;;;;;;5076774;28;20052;-53
2023/06/19 03:06:08;;;;;;;9.70;8.70;;;14.90;99.90;;;;;;5088468;28;20148;-54
2023/06/19 03:08:34;;;;;;;10.75;9.60;;;14.90;99.90;;;;;;5084681;28;20282;-53
2023/06/19 03:11:00;;;;;;;11.20;9.13;;;15.00;99.90;;;;;;5110941;28;20027;-55
2023/06/19 03:13:26;;;;;;;12.85;11.10;;;15.00;99.90;;;;;;5078970;28;20025;-54
2023/06/19 03:15:51;;;;;;;11.35;9.93;;;15.00;99.90;;;;;;5110473;28;20562;-55
2023/06/19 03:18:17;;;;;;;11.00;9.90;;;15.00;99.90;;;;;;5100137;28;20016;-53
2023/06/19 03:20:42;;;;;;;12.18;10.45;;;15.10;99.90;;;;;;5091772;28;20028;-55
2023/06/19 03:23:08;;;;;;;11.68;10.48;;;15.10;99.90;;;;;;5108778;28;20035;-53
2023/06/19 03:25:34;;;;;;;9.90;8.80;;;15.20;99.90;;;;;;5091657;28;20388;-52
2023/06/19 03:28:02;;;;;;;10.88;9.77;;;15.20;99.90;;;;;;5108692;28;20020;-52
2023/06/19 03:30:28;;;;;;;10.80;9.70;;;15.40;99.90;;;;;;5111495;28;20032;-54
2023/06/19 03:32:53;;;;;;;11.05;8.52;;;15.40;99.90;;;;;;5096458;28;20113;-54
2023/06/19 03:35:19;;;;;;;9.77;8.77;;;15.50;99.90;;;;;;5111315;28;20458;-56
2023/06/19 03:37:44;;;;;;;10.77;8.82;;;15.70;99.90;;;;;;5094951;28;20032;-52
2023/06/19 03:40:13;;;;;;;9.63;8.63;;;16.30;99.90;;;;;;5111264;28;20039;-53
2023/06/19 03:42:41;;;;;;;10.77;9.30;;;16.80;99.90;;;;;;5093580;28;20027;-54
2023/06/19 03:45:07;;;;;;;8.43;7.63;;;17.50;99.90;;;;;;5095575;28;20072;-56
2023/06/19 03:47:33;;;;;;;8.30;7.40;;;18.10;99.90;;;;;;5073097;28;20051;-56
2023/06/19 03:49:58;;;;;;;9.80;8.20;;;18.80;99.90;;;;;;5086427;28;20108;-54
2023/06/19 03:52:23;;;;;;;8.88;7.55;;;19.30;99.90;;;;;;5109188;28;20032;-54
2023/06/19 03:54:49;;;;;;;8.52;7.70;;;19.50;99.90;;;;;;5080317;28;20032;-53
2023/06/19 03:57:15;;;;;;;9.38;7.20;;;20.10;99.90;;;;;;5109240;28;20035;-53
2023/06/19 03:59:40;;;;;;;7.95;7.22;;;20.70;99.90;;;;;;5080980;28;20060;-53
2023/06/19 04:02:06;;;;;;;7.72;7.00;;;21.40;97.80;;;;;;5070353;28;20032;-54
2023/06/19 04:04:31;;;;;;;8.02;7.10;;;22.10;96.00;;;;;;5094203;28;20048;-50
2023/06/19 04:06:58;;;;;;;8.50;7.45;;;22.60;94.70;;;;;;5065030;28;20016;-50
2023/06/19 04:09:24;;;;;;;9.45;8.45;;;22.50;93.90;;;;;;5097152;28;20103;-55
2023/06/19 04:11:50;;;;;;;9.38;8.35;;;22.30;93.30;;;;;;5069855;28;20107;-55
2023/06/19 04:14:15;;;;;;;11.95;9.75;;;22.00;92.80;;;;;;5098732;28;20070;-52
2023/06/19 04:16:41;;;;;;;9.98;8.98;;;21.70;92.40;;;;;;5069956;28;20062;-53
2023/06/19 04:19:06;;;;;;;10.25;9.25;;;21.50;91.70;;;;;;5101277;28;20032;-54
2023/06/19 04:21:31;;;;;;;10.73;9.73;;;21.30;90.60;;;;;;5078107;28;20059;-52
2023/06/19 04:23:57;;;;;;;10.23;9.23;;;21.70;87.60;;;;;;5088081;28;20109;-51
2023/06/19 04:26:24;;;;;;;10.75;9.60;;;21.80;84.20;;;;;;5075067;28;20043;-51
2023/06/19 04:28:50;;;;;;;9.73;8.82;;;21.50;84.00;;;;;;5100620;28;20040;-50
2023/06/19 04:31:17;;;;;;;10.05;9.10;;;21.20;84.90;;;;;;5076918;28;20036;-51
2023/06/19 04:33:43;;;;;;;10.18;8.88;;;20.90;84.10;;;;;;5109653;28;20051;-54
2023/06/19 04:36:09;;;;;;;11.02;10.02;;;20.70;85.80;;;;;;5076295;28;20064;-55
2023/06/19 04:38:35;;;;;;;11.65;10.55;;;20.40;84.60;;;;;;5099651;28;20061;-52
2023/06/19 04:41:00;;;;;;;12.10;10.80;;;20.20;84.70;;;;;;5109921;28;20419;-54
2023/06/19 04:43:26;;;;;;;12.15;11.05;;;20.00;84.40;;;;;;5086198;28;20077;-55
2023/06/19 04:45:51;;;;;;;13.10;11.90;;;19.80;84.80;;;;;;5089770;28;20036;-55
2023/06/19 04:48:17;;;;;;;13.95;12.60;;;19.60;85.30;;;;;;5107394;28;20118;-55
2023/06/19 04:50:42;;;;;;;13.65;12.27;;;19.30;85.10;;;;;;5095968;28;20059;-51
2023/06/19 04:53:08;;;;;;;12.25;10.70;;;19.20;86.10;;;;;;5107864;28;20506;-56
2023/06/19 04:55:33;;;;;;;12.25;11.05;;;19.20;87.40;;;;;;5109740;28;20031;-54
2023/06/19 04:57:59;;;;;;;14.05;11.90;;;19.10;87.70;;;;;;5094249;28;20379;-55
2023/06/19 05:00:25;;;;;;;11.27;10.15;;;19.10;87.50;;;;;;5109630;28;20020;-54
2023/06/19 05:02:50;;;;;;;12.10;10.80;;;19.10;88.00;;;;;;5093045;28;20023;-56
2023/06/19 05:05:17;;;;;;;12.27;10.18;;;19.10;87.60;;;;;;5096120;28;20088;-55
2023/06/19 05:07:42;;;;;;;10.80;9.70;;;19.10;88.00;;;;;;5107005;28;20020;-55
2023/06/19 05:10:09;;;;;;;12.02;10.73;;;19.10;88.10;;;;;;5109065;28;20046;-56
2023/06/19 05:12:35;;;;;;;12.48;11.05;;;19.20;87.90;;;;;;5079407;28;20032;-54
2023/06/19 05:15:01;;;;;;;15.00;10.75;;;19.20;87.50;;;;;;5107805;28;20027;-54
2023/06/19 05:17:27;;;;;;;10.93;9.93;;;19.10;87.30;;;;;;5094401;28;20031;-53
2023/06/19 05:19:52;;;;;;;12.07;10.90;;;19.20;87.60;;;;;;5109352;28;20042;-54
2023/06/19 05:22:18;;;;;;;10.65;9.55;;;19.30;87.10;;;;;;5093455;28;20055;-51
2023/06/19 05:24:44;;;;;;;10.00;9.00;;;19.30;87.00;;;;;;5109054;28;20097;-52
2023/06/19 05:27:10;;;;;;;9.80;8.90;;;19.40;87.10;;;;;;5092233;28;20016;-55
2023/06/19 05:29:35;;;;;;;11.38;10.18;;;19.50;86.70;;;;;;5096970;28;20115;-53
2023/06/19 05:32:01;;;;;;;11.05;9.95;;;19.40;85.70;;;;;;5106744;28;20031;-54
2023/06/19 05:34:26;;;;;;;11.63;10.40;;;19.50;86.00;;;;;;5109005;28;20048;-54
2023/06/19 05:36:52;;;;;;;10.80;9.75;;;19.50;85.70;;;;;;5089453;28;20070;-54
2023/06/19 05:39:18;;;;;;;11.55;10.05;;;19.60;86.20;;;;;;5108875;28;20019;-56
2023/06/19 05:41:45;;;;;;;11.70;10.55;;;19.60;86.50;;;;;;5088086;28;20049;-56
2023/06/19 05:44:14;;;;;;;11.52;9.43;;;19.60;85.60;;;;;;5108755;28;20019;-55
2023/06/19 05:46:40;;;;;;;10.98;9.30;;;19.60;85.70;;;;;;5087200;28;20443;-55
2023/06/19 05:49:05;;;;;;;10.48;9.40;;;19.60;86.00;;;;;;5108747;28;20027;-51
2023/06/19 05:51:31;;;;;;;10.73;9.73;;;19.70;85.70;;;;;;5087486;28;20028;-53
2023/06/19 05:54:01;;;;;;;10.80;9.77;;;19.80;85.80;;;;;;5106316;28;20463;-54
2023/06/19 05:56:26;;;;;;;11.30;10.10;;;19.80;85.70;;;;;;5087002;28;20549;-56
2023/06/19 05:58:51;;;;;;;11.68;10.48;;;19.90;85.90;;;;;;5067977;28;20071;-54
2023/06/19 06:01:17;;;;;;;12.20;10.23;;;19.90;85.60;;;;;;5107300;28;20032;-51
2023/06/19 06:03:43;;;;;;;11.15;9.98;;;20.00;85.70;;;;;;5068530;28;20104;-50
2023/06/19 06:06:08;;;;;;;12.73;11.43;;;20.10;85.90;;;;;;5100166;28;20028;-50
2023/06/19 06:08:34;;;;;;;9.65;8.65;;;20.10;85.80;;;;;;5070728;28;20040;-52
2023/06/19 06:10:59;;;;;;;11.25;10.10;;;20.10;85.30;;;;;;5107614;28;20047;-51
2023/06/19 06:13:25;;;;;;;10.48;9.48;;;20.20;84.80;;;;;;5071885;28;20566;-52
2023/06/19 06:15:51;;;;;;;11.40;10.20;;;20.30;84.40;;;;;;5107187;28;20035;-51
2023/06/19 06:18:16;;;;;;;11.60;10.50;;;20.30;84.10;;;;;;5073221;28;20068;-51
2023/06/19 06:20:42;;;;;;;12.30;11.10;;;20.30;83.60;;;;;;5108186;28;20360;-54
2023/06/19 06:23:07;;;;;;;12.00;10.80;;;20.40;83.20;;;;;;5078258;28;20033;-52
2023/06/19 06:25:33;;;;;;;12.90;11.57;;;20.30;83.10;;;;;;5111031;28;20028;-52
2023/06/19 06:27:58;;;;;;;13.63;12.30;;;20.20;81.90;;;;;;5079452;28;20025;-52
2023/06/19 06:30:24;;;;;;;13.10;11.80;;;20.20;83.10;;;;;;5111132;28;20031;-53
2023/06/19 06:32:50;;;;;;;13.38;11.38;;;20.20;83.60;;;;;;5080244;28;20043;-51
2023/06/19 06:35:16;;;;;;;12.55;11.35;;;20.10;83.40;;;;;;5111359;28;20053;-53
2023/06/19 06:37:43;;;;;;;17.48;12.52;;;20.00;83.60;;;;;;5081548;28;20028;-53
2023/06/19 06:40:10;;;;;;;14.07;11.60;;;20.00;84.40;;;;;;5111373;28;20451;-52
2023/06/19 06:42:36;;;;;;;11.18;10.02;;;20.00;84.50;;;;;;5081999;28;20526;-52
2023/06/19 06:45:02;;;;;;;10.32;9.23;;;20.10;83.90;;;;;;5110967;28;20451;-53
2023/06/19 06:47:28;;;;;;;11.88;10.68;;;20.20;83.90;;;;;;5083142;28;20119;-53
2023/06/19 06:49:53;;;;;;;12.30;11.00;;;20.20;82.60;;;;;;5071423;28;20039;-52
2023/06/19 06:52:19;;;;;;;11.07;10.05;;;20.20;82.00;;;;;;5096918;28;20023;-52
2023/06/19 06:54:44;;;;;;;13.48;11.93;;;20.30;82.30;;;;;;5071580;28;20060;-52
2023/06/19 06:57:10;;;;;;;11.00;9.90;;;20.30;82.10;;;;;;5097727;28;20074;-51
2023/06/19 06:59:35;;;;;;;12.13;10.95;;;20.40;82.20;;;;;;5071312;28;20066;-52
2023/06/19 07:02:01;;;;;;;11.68;10.57;;;20.40;81.80;;;;;;5101671;28;20559;-53
2023/06/19 07:04:26;;;;;;;10.48;9.48;;;20.40;81.50;;;;;;5072731;28;20021;-53
2023/06/19 07:06:52;;;;;;;9.60;8.70;;;20.50;81.60;;;;;;5102169;28;20027;-51
2023/06/19 07:09:18;;;;;;;11.00;10.00;;;20.60;81.80;;;;;;5071302;28;20028;-53
2023/06/19 07:11:43;;;;;;;10.45;9.45;;;20.70;81.60;;;;;;5106595;28;20119;-53
2023/06/19 07:14:09;;;;;;;10.55;9.55;;;20.80;80.70;;;;;;5071069;28;20035;-52
2023/06/19 07:16:34;;;;;;;10.82;9.68;;;20.90;80.30;;;;;;5110229;28;20055;-53
2023/06/19 07:18:59;;;;;;;10.38;9.35;;;21.00;80.40;;;;;;5069555;28;20040;-49
2023/06/19 07:21:27;;;;;;;10.05;9.13;;;21.10;80.40;;;;;;5108969;28;20019;-49
2023/06/19 07:23:53;;;;;;;11.20;10.07;;;21.20;80.20;;;;;;5069021;28;20142;-52
2023/06/19 07:26:19;;;;;;;13.02;11.73;;;21.30;80.20;;;;;;5110236;28;20067;-54
2023/06/19 07:28:44;;;;;;;12.30;11.00;;;21.20;78.70;;;;;;5080414;28;20043;-53
2023/06/19 07:31:10;;;;;;;12.65;11.45;;;21.20;78.80;;;;;;5111320;28;20035;-50
2023/06/19 07:33:35;;;;;;;14.55;13.07;;;21.20;78.10;;;;;;5072575;28;20033;-51
2023/06/19 07:36:04;;;;;;;14.25;12.85;;;21.30;77.60;;;;;;5110040;28;20019;-53
2023/06/19 07:38:30;;;;;;;13.02;11.73;;;21.30;78.10;;;;;;5073153;28;20093;-52
2023/06/19 07:40:55;;;;;;;13.77;12.45;;;21.30;77.80;;;;;;5109858;28;20115;-52
2023/06/19 07:43:23;;;;;;;12.32;11.13;;;21.40;77.70;;;;;;5074878;28;20032;-54
2023/06/19 07:45:49;;;;;;;12.85;11.55;;;21.40;77.40;;;;;;5110393;28;20133;-51
2023/06/19 07:48:15;;;;;;;14.02;12.63;;;21.50;77.40;;;;;;5075584;28;20103;-51
2023/06/19 07:50:41;;;;;;;14.35;12.55;;;21.60;76.80;;;;;;5109752;28;20101;-53
2023/06/19 07:53:06;;;;;;;13.63;12.32;;;21.80;75.90;;;;;;5076723;27;20028;-51
2023/06/19 07:55:35;;;;;;;14.05;12.52;;;21.90;75.80;;;;;;5109214;28;20706;-51
2023/06/19 07:58:00;;;;;;;14.05;12.65;;;22.10;74.20;;;;;;5077367;28;20424;-53
2023/06/19 08:00:26;;;;;;;18.27;14.40;;;22.30;72.70;;;;;;5109448;28;20034;-51
2023/06/19 08:02:51;;;;;;;17.90;15.70;;;22.30;70.90;;;;;;5078261;28;20129;-53
2023/06/19 08:05:17;;;;;;;17.67;15.05;;;22.30;67.80;;;;;;5094818;28;20039;-51
2023/06/19 08:07:42;;;;;;;14.75;13.23;;;22.20;70.10;;;;;;5089361;28;20083;-54
2023/06/19 08:10:08;;;;;;;15.30;12.57;;;22.30;70.00;;;;;;5109188;28;20077;-52
2023/06/19 08:12:34;;;;;;;15.52;12.90;;;22.40;70.10;;;;;;5080582;28;20040;-53
2023/06/19 08:14:59;;;;;;;13.88;11.85;;;22.40;69.40;;;;;;5109144;28;20444;-54
2023/06/19 08:17:25;;;;;;;12.82;10.95;;;22.50;69.60;;;;;;5081930;28;20024;-50
2023/06/19 08:19:50;;;;;;;13.65;12.35;;;22.70;70.10;;;;;;5069639;28;20024;-47
2023/06/19 08:22:15;;;;;;;13.40;12.20;;;22.80;69.30;;;;;;5095981;28;20032;-47
2023/06/19 08:24:41;;;;;;;12.57;11.40;;;22.90;67.90;;;;;;5069688;28;20037;-46
2023/06/19 08:27:07;;;;;;;16.33;13.88;;;23.00;67.70;;;;;;5098316;28;20255;-47
2023/06/19 08:29:33;;;;;;;13.75;12.45;;;23.00;66.90;;;;;;5091473;28;20039;-46
2023/06/19 08:31:58;;;;;;;12.60;11.40;;;23.00;66.90;;;;;;5085357;28;20543;-50
2023/06/19 08:34:24;;;;;;;11.43;10.35;;;23.10;66.50;;;;;;5069406;28;20024;-45
2023/06/19 08:36:49;;;;;;;13.48;12.13;;;23.10;66.60;;;;;;5102816;28;20070;-51
2023/06/19 08:39:15;;;;;;;12.98;11.35;;;23.20;66.00;;;;;;5069695;28;20059;-48
2023/06/19 08:41:41;;;;;;;13.38;12.00;;;23.20;65.30;;;;;;5105420;28;20507;-47
2023/06/19 08:44:08;;;;;;;12.30;11.10;;;23.20;65.00;;;;;;5068542;28;20500;-46
2023/06/19 08:46:34;;;;;;;12.73;11.52;;;23.30;65.00;;;;;;5108586;28;20071;-48
2023/06/19 08:49:00;;;;;;;12.20;10.93;;;23.20;63.50;;;;;;5067876;28;20056;-49
2023/06/19 08:51:28;;;;;;;11.23;10.20;;;23.10;64.00;;;;;;5108621;28;20035;-50
2023/06/19 08:54:04;;;;;;;11.50;10.30;;;23.20;64.30;;;;;;5068558;28;20025;-50
2023/06/19 08:56:34;;;;;;;12.73;10.43;;;23.30;63.10;;;;;;5069087;28;20048;-46
2023/06/19 08:59:13;;;;;;;11.68;10.57;;;23.20;61.90;;;;;;5066341;28;20056;-47
2023/06/19 09:01:39;;;;;;;10.52;9.52;;;23.30;62.50;;;;;;5106966;28;20076;-51
2023/06/19 09:04:13;;;;;;;10.73;9.73;;;23.40;63.70;;;;;;5069247;28;20052;-45
2023/06/19 09:06:52;;;;;;;10.75;9.65;;;23.50;61.90;;;;;;5060926;28;20039;-46
2023/06/19 09:09:20;;;;;;;11.30;10.23;;;23.60;61.80;;;;;;5069078;28;20040;-51
2023/06/19 09:11:58;;;;;;;10.88;9.75;;;23.60;62.00;;;;;;5104167;28;20096;-48
2023/06/19 09:14:44;;;;;;;10.23;9.07;;;23.80;61.50;;;;;;5068873;28;20433;-49
2023/06/19 09:17:17;;;;;;;9.57;8.35;;;24.00;61.40;;;;;;5066939;28;20039;-48
2023/06/19 09:19:50;;;;;;;11.65;10.25;;;24.30;61.20;;;;;;5069031;28;20526;-47
2023/06/19 09:22:20;;;;;;;10.73;9.63;;;24.40;56.30;;;;;;5095355;28;20028;-50
2023/06/19 09:24:46;;;;;;;12.00;10.80;;;24.40;58.70;;;;;;5068739;28;20050;-48
2023/06/19 09:27:14;;;;;;;11.38;10.18;;;24.40;57.00;;;;;;5095918;28;20117;-46
2023/06/19 09:29:42;;;;;;;10.73;9.63;;;24.60;57.10;;;;;;5092574;28;20051;-48
2023/06/19 09:32:18;;;;;;;12.00;8.80;;;24.70;57.00;;;;;;5091539;28;20049;-47
2023/06/19 09:34:43;;;;;;;9.30;8.50;;;24.80;54.70;;;;;;5109315;28;20035;-49
2023/06/19 09:37:09;;;;;;;10.15;9.23;;;24.90;56.50;;;;;;5082830;28;20772;-47
2023/06/19 09:39:37;;;;;;;9.18;8.38;;;25.10;56.30;;;;;;5068597;28;20027;-50
2023/06/19 09:42:03;;;;;;;10.35;9.35;;;25.20;55.00;;;;;;5099230;28;20033;-47
2023/06/19 09:44:35;;;;;;;8.82;8.02;;;25.20;54.80;;;;;;5068386;28;20020;-47
2023/06/19 09:47:06;;;;;;;11.95;9.32;;;25.30;55.20;;;;;;5066736;28;20090;-46
2023/06/19 09:49:33;;;;;;;9.63;8.05;;;25.30;53.90;;;;;;5068439;28;20020;-45
2023/06/19 09:51:59;;;;;;;10.15;8.98;;;25.40;55.00;;;;;;5099850;28;20115;-46
2023/06/19 09:54:25;;;;;;;8.55;7.82;;;25.50;54.20;;;;;;5068634;28;20112;-46
2023/06/19 09:56:55;;;;;;;9.27;8.20;;;25.50;54.30;;;;;;5104521;28;20092;-50
2023/06/19 09:59:22;;;;;;;8.70;7.90;;;25.60;53.80;;;;;;5072579;28;20027;-47
2023/06/19 10:01:48;;;;;;;8.07;7.35;;;25.80;53.90;;;;;;5106957;28;20020;-48
2023/06/19 10:04:14;;;;;;;9.07;8.25;;;25.80;52.50;;;;;;5071036;28;20440;-48
2023/06/19 10:06:46;;;;;;;9.57;8.73;;;25.90;50.30;;;;;;5102525;28;20032;-48
2023/06/19 10:09:14;;;;;;;10.00;8.45;;;25.80;50.40;;;;;;5072252;28;20017;-46
2023/06/19 10:11:51;;;;;;;10.32;8.98;;;25.90;51.50;;;;;;5110137;28;20100;-45
2023/06/19 10:14:20;;;;;;;11.20;9.02;;;25.80;49.60;;;;;;5112969;28;20020;-47
2023/06/19 10:16:46;;;;;;;9.52;8.07;;;25.80;51.10;;;;;;5089191;28;20024;-49
2023/06/19 10:19:14;;;;;;;8.10;7.40;;;26.00;51.60;;;;;;5072285;28;20023;-49
2023/06/19 10:21:54;;;;;;;9.18;8.30;;;26.10;50.50;;;;;;5109132;28;20044;-46
2023/06/19 10:24:20;;;;;;;9.68;8.68;;;26.10;50.50;;;;;;5072299;28;20055;-47
2023/06/19 10:27:02;;;;;;;9.82;8.57;;;26.10;50.40;;;;;;5106734;28;20055;-47
2023/06/19 10:29:38;;;;;;;8.07;7.35;;;26.20;48.70;;;;;;5092372;28;20059;-49
2023/06/19 10:32:04;;;;;;;8.75;7.95;;;26.40;49.20;;;;;;5070166;28;20161;-52
2023/06/19 10:34:34;;;;;;;9.57;8.50;;;26.60;49.90;;;;;;5071765;28;20024;-47
2023/06/19 10:36:59;;;;;;;8.95;8.13;;;26.60;48.60;;;;;;5070036;28;20462;-50
2023/06/19 10:39:25;;;;;;;8.95;8.15;;;26.80;49.20;;;;;;5071833;28;20103;-47
2023/06/19 10:41:50;;;;;;;9.30;8.20;;;26.70;48.50;;;;;;5104954;28;20193;-47
2023/06/19 10:44:16;;;;;;;9.82;9.02;;;26.80;48.50;;;;;;5071481;28;20024;-49
2023/06/19 10:46:41;;;;;;;9.95;8.95;;;26.90;48.50;;;;;;5107368;28;20140;-47
2023/06/19 10:49:10;;;;;;;11.15;8.68;;;27.00;47.80;;;;;;5070499;28;20021;-48
2023/06/19 10:51:37;;;;;;;10.20;9.20;;;27.20;47.60;;;;;;5111547;28;20027;-49
2023/06/19 10:54:03;;;;;;;10.00;9.10;;;27.30;44.60;;;;;;5071666;28;20030;-50
2023/06/19 10:56:29;;;;;;;11.88;10.77;;;27.30;46.00;;;;;;5094787;28;20032;-50
2023/06/19 10:59:03;;;;;;;9.82;8.90;;;27.00;44.10;;;;;;5082521;28;20028;-50
2023/06/19 11:01:41;;;;;;;10.93;9.93;;;27.10;44.90;;;;;;5080753;28;20697;-46
2023/06/19 11:04:08;;;;;;;9.90;9.00;;;27.30;43.60;;;;;;5089455;28;20500;-49
2023/06/19 11:06:35;;;;;;;10.35;9.35;;;27.40;41.90;;;;;;5081723;28;20234;-48
2023/06/19 11:09:02;;;;;;;10.15;9.15;;;27.50;44.50;;;;;;5071655;28;20060;-49
2023/06/19 11:11:45;;;;;;;11.13;10.02;;;27.60;44.30;;;;;;5103881;28;20662;-47
2023/06/19 11:14:14;;;;;;;9.77;8.88;;;27.80;41.80;;;;;;5088794;28;20111;-51
2023/06/19 11:16:42;;;;;;;10.70;9.70;;;27.90;42.70;;;;;;5077456;28;20043;-51
2023/06/19 11:19:09;;;;;;;10.57;9.68;;;27.90;41.60;;;;;;5085431;28;20035;-48
2023/06/19 11:21:38;;;;;;;9.95;8.95;;;27.90;41.60;;;;;;5098044;28;20032;-46
2023/06/19 11:24:05;;;;;;;11.52;10.00;;;27.90;41.40;;;;;;5088942;28;20028;-51
2023/06/19 11:26:37;;;;;;;11.20;10.10;;;27.70;41.90;;;;;;5090571;28;20789;-49
2023/06/19 11:29:14;;;;;;;10.90;9.80;;;27.30;41.50;;;;;;5095456;28;20126;-47
2023/06/19 11:31:39;;;;;;;8.85;8.10;;;27.10;42.60;;;;;;5097427;28;20081;-48
2023/06/19 11:34:04;;;;;;;9.40;8.57;;;27.10;43.30;;;;;;5108061;28;20473;-46
2023/06/19 11:36:30;;;;;;;9.50;8.60;;;27.20;42.90;;;;;;5080040;28;20083;-48
2023/06/19 11:38:56;;;;;;;9.88;8.88;;;27.10;42.80;;;;;;5068330;28;20489;-46
2023/06/19 11:41:28;;;;;;;11.30;9.90;;;27.10;43.50;;;;;;5094038;28;20492;-50
2023/06/19 11:43:59;;;;;;;11.63;10.48;;;26.90;42.00;;;;;;5067840;28;20024;-46
2023/06/19 11:46:31;;;;;;;10.90;9.80;;;26.70;41.50;;;;;;5080134;28;20024;-49
2023/06/19 11:49:14;;;;;;;11.43;10.05;;;26.70;41.90;;;;;;5070227;28;20137;-50
2023/06/19 11:51:40;;;;;;;10.93;9.85;;;26.80;41.60;;;;;;5084983;28;20100;-47
2023/06/19 11:54:08;;;;;;;11.40;10.40;;;26.80;40.90;;;;;;5091053;28;20016;-49
2023/06/19 11:56:34;;;;;;;10.50;9.48;;;26.80;39.80;;;;;;5093415;28;20064;-47
2023/06/19 11:59:01;;;;;;;11.73;10.52;;;26.70;41.00;;;;;;5068912;28;20055;-49
2023/06/19 12:01:27;;;;;;;11.20;10.13;;;26.60;39.60;;;;;;5094889;28;20027;-45
2023/06/19 12:03:52;;;;;;;12.05;10.95;;;26.70;40.60;;;;;;5069862;28;20020;-45
2023/06/19 12:06:18;;;;;;;11.38;10.18;;;26.90;40.00;;;;;;5093403;28;20056;-46
2023/06/19 12:08:44;;;;;;;11.82;10.73;;;27.10;39.80;;;;;;5070086;28;20193;-49
2023/06/19 12:11:10;;;;;;;12.10;10.02;;;27.20;39.40;;;;;;5107166;28;20016;-51
2023/06/19 12:13:35;;;;;;;11.98;10.55;;;27.30;39.00;;;;;;5110542;28;20068;-47
2023/06/19 12:16:01;;;;;;;11.95;10.82;;;27.40;39.10;;;;;;5085847;28;20024;-48
2023/06/19 12:18:27;;;;;;;11.25;10.13;;;27.40;38.80;;;;;;5069724;28;20025;-49
2023/06/19 12:20:52;;;;;;;11.75;10.63;;;27.50;38.50;;;;;;5102244;28;20027;-48
2023/06/19 12:23:18;;;;;;;11.35;9.85;;;27.70;37.40;;;;;;5069806;28;20385;-52
2023/06/19 12:25:43;;;;;;;11.23;10.13;;;27.60;36.90;;;;;;5106053;28;20038;-46
2023/06/19 12:28:09;;;;;;;13.05;11.10;;;27.70;37.70;;;;;;5069412;28;20028;-47
2023/06/19 12:30:36;;;;;;;12.00;10.85;;;27.70;37.80;;;;;;5108884;28;20028;-48
2023/06/19 12:33:03;;;;;;;13.65;10.90;;;27.60;37.60;;;;;;5068653;28;20131;-47
2023/06/19 12:35:28;;;;;;;11.35;10.15;;;27.80;37.50;;;;;;5109110;28;20023;-47